sensor_id;sensor_type;location;lat;lon;timestamp;P1;durP1;ratioP1;P2;durP2;ratioP2
32347;SDS011;18821;44.800;10.326;2023-12-20T00:00:08;8.95;;;5.50;;
32347;SDS011;18821;44.800;10.326;2023-12-20T00:02:35;10.68;;;4.55;;
32347;SDS011;18821;44.800;10.326;2023-12-20T00:05:04;11.05;;;5.00;;
32347;SDS011;18821;44.800;10.326;2023-12-20T00:07:33;9.68;;;5.43;;
32347;SDS011;18821;44.800;10.326;2023-12-20T00:09:59;10.82;;;5.15;;
32347;SDS011;18821;44.800;10.326;2023-12-20T00:12:25;10.52;;;4.72;;
32347;SDS011;18821;44.800;10.326;2023-12-20T00:14:51;10.13;;;5.03;;
32347;SDS011;18821;44.800;10.326;2023-12-20T00:17:17;12.23;;;5.78;;
32347;SDS011;18821;44.800;10.326;2023-12-20T00:19:43;10.85;;;5.05;;
32347;SDS011;18821;44.800;10.326;2023-12-20T00:22:08;12.50;;;4.70;;
32347;SDS011;18821;44.800;10.326;2023-12-20T00:24:34;9.95;;;4.55;;
32347;SDS011;18821;44.800;10.326;2023-12-20T00:27:00;10.77;;;4.60;;
32347;SDS011;18821;44.800;10.326;2023-12-20T00:29:26;10.95;;;3.80;;
32347;SDS011;18821;44.800;10.326;2023-12-20T00:31:52;10.48;;;4.57;;
32347;SDS011;18821;44.800;10.326;2023-12-20T00:34:18;10.02;;;4.20;;
32347;SDS011;18821;44.800;10.326;2023-12-20T00:36:44;8.48;;;4.45;;
32347;SDS011;18821;44.800;10.326;2023-12-20T00:39:10;13.02;;;4.70;;
32347;SDS011;18821;44.800;10.326;2023-12-20T00:41:36;10.27;;;4.38;;
32347;SDS011;18821;44.800;10.326;2023-12-20T00:44:02;15.50;;;5.65;;
32347;SDS011;18821;44.800;10.326;2023-12-20T00:46:28;8.93;;;4.55;;
32347;SDS011;18821;44.800;10.326;2023-12-20T00:48:54;9.23;;;4.30;;
32347;SDS011;18821;44.800;10.326;2023-12-20T00:51:20;8.88;;;5.00;;
32347;SDS011;18821;44.800;10.326;2023-12-20T00:53:47;9.70;;;4.53;;
32347;SDS011;18821;44.800;10.326;2023-12-20T00:56:15;10.38;;;4.07;;
32347;SDS011;18821;44.800;10.326;2023-12-20T00:58:41;9.00;;;4.53;;
32347;SDS011;18821;44.800;10.326;2023-12-20T01:01:07;8.00;;;4.35;;
32347;SDS011;18821;44.800;10.326;2023-12-20T01:03:35;7.22;;;4.45;;
32347;SDS011;18821;44.800;10.326;2023-12-20T01:06:01;8.02;;;4.32;;
32347;SDS011;18821;44.800;10.326;2023-12-20T01:08:27;11.00;;;4.75;;
32347;SDS011;18821;44.800;10.326;2023-12-20T01:10:53;10.18;;;4.95;;
32347;SDS011;18821;44.800;10.326;2023-12-20T01:13:19;8.90;;;4.65;;
32347;SDS011;18821;44.800;10.326;2023-12-20T01:15:45;9.43;;;3.75;;
32347;SDS011;18821;44.800;10.326;2023-12-20T01:18:13;6.43;;;4.10;;
32347;SDS011;18821;44.800;10.326;2023-12-20T01:20:40;9.38;;;4.07;;
32347;SDS011;18821;44.800;10.326;2023-12-20T01:23:05;7.82;;;4.18;;
32347;SDS011;18821;44.800;10.326;2023-12-20T01:25:31;8.10;;;3.67;;
32347;SDS011;18821;44.800;10.326;2023-12-20T01:27:57;8.90;;;4.18;;
32347;SDS011;18821;44.800;10.326;2023-12-20T01:30:23;7.18;;;4.00;;
32347;SDS011;18821;44.800;10.326;2023-12-20T01:32:49;8.07;;;3.92;;
32347;SDS011;18821;44.800;10.326;2023-12-20T01:35:15;9.05;;;3.75;;
32347;SDS011;18821;44.800;10.326;2023-12-20T01:37:41;8.65;;;3.72;;
32347;SDS011;18821;44.800;10.326;2023-12-20T01:40:07;6.57;;;3.42;;
32347;SDS011;18821;44.800;10.326;2023-12-20T01:42:34;7.97;;;4.20;;
32347;SDS011;18821;44.800;10.326;2023-12-20T01:45:00;9.57;;;3.83;;
32347;SDS011;18821;44.800;10.326;2023-12-20T01:47:26;8.43;;;3.67;;
32347;SDS011;18821;44.800;10.326;2023-12-20T01:49:52;9.18;;;3.78;;
32347;SDS011;18821;44.800;10.326;2023-12-20T01:52:19;6.22;;;3.63;;
32347;SDS011;18821;44.800;10.326;2023-12-20T01:54:45;6.20;;;3.25;;
32347;SDS011;18821;44.800;10.326;2023-12-20T01:57:12;8.48;;;3.95;;
32347;SDS011;18821;44.800;10.326;2023-12-20T01:59:39;7.13;;;3.53;;
32347;SDS011;18821;44.800;10.326;2023-12-20T02:02:06;7.85;;;3.75;;
32347;SDS011;18821;44.800;10.326;2023-12-20T02:04:33;8.07;;;3.45;;
32347;SDS011;18821;44.800;10.326;2023-12-20T02:06:59;9.27;;;3.80;;
32347;SDS011;18821;44.800;10.326;2023-12-20T02:09:26;9.75;;;4.35;;
32347;SDS011;18821;44.800;10.326;2023-12-20T02:11:54;8.77;;;4.22;;
32347;SDS011;18821;44.800;10.326;2023-12-20T02:14:20;7.82;;;3.75;;
32347;SDS011;18821;44.800;10.326;2023-12-20T02:16:45;9.45;;;4.03;;
32347;SDS011;18821;44.800;10.326;2023-12-20T02:19:15;7.68;;;3.88;;
32347;SDS011;18821;44.800;10.326;2023-12-20T02:21:42;8.38;;;4.18;;
32347;SDS011;18821;44.800;10.326;2023-12-20T02:24:08;6.55;;;2.88;;
32347;SDS011;18821;44.800;10.326;2023-12-20T02:26:35;9.13;;;3.65;;
32347;SDS011;18821;44.800;10.326;2023-12-20T02:29:01;7.90;;;4.95;;
32347;SDS011;18821;44.800;10.326;2023-12-20T02:31:27;7.22;;;3.65;;
32347;SDS011;18821;44.800;10.326;2023-12-20T02:33:53;6.72;;;3.42;;
32347;SDS011;18821;44.800;10.326;2023-12-20T02:36:19;6.15;;;2.85;;
32347;SDS011;18821;44.800;10.326;2023-12-20T02:38:45;6.72;;;3.25;;
32347;SDS011;18821;44.800;10.326;2023-12-20T02:41:12;5.70;;;3.40;;
32347;SDS011;18821;44.800;10.326;2023-12-20T02:43:38;10.93;;;3.70;;
32347;SDS011;18821;44.800;10.326;2023-12-20T02:46:03;6.88;;;4.10;;
32347;SDS011;18821;44.800;10.326;2023-12-20T02:48:29;8.70;;;4.15;;
32347;SDS011;18821;44.800;10.326;2023-12-20T02:50:55;8.57;;;4.10;;
32347;SDS011;18821;44.800;10.326;2023-12-20T02:53:21;8.20;;;4.80;;
32347;SDS011;18821;44.800;10.326;2023-12-20T02:55:47;9.80;;;4.43;;
32347;SDS011;18821;44.800;10.326;2023-12-20T02:58:13;9.25;;;4.85;;
32347;SDS011;18821;44.800;10.326;2023-12-20T03:00:39;10.93;;;4.75;;
32347;SDS011;18821;44.800;10.326;2023-12-20T03:03:05;8.57;;;4.55;;
32347;SDS011;18821;44.800;10.326;2023-12-20T03:05:30;7.78;;;4.63;;
32347;SDS011;18821;44.800;10.326;2023-12-20T03:07:58;10.65;;;4.85;;
32347;SDS011;18821;44.800;10.326;2023-12-20T03:10:24;9.50;;;4.57;;
32347;SDS011;18821;44.800;10.326;2023-12-20T03:12:49;10.38;;;5.22;;
32347;SDS011;18821;44.800;10.326;2023-12-20T03:15:15;11.18;;;5.20;;
32347;SDS011;18821;44.800;10.326;2023-12-20T03:17:41;13.07;;;5.07;;
32347;SDS011;18821;44.800;10.326;2023-12-20T03:20:07;9.43;;;4.70;;
32347;SDS011;18821;44.800;10.326;2023-12-20T03:22:34;8.00;;;4.63;;
32347;SDS011;18821;44.800;10.326;2023-12-20T03:25:00;10.73;;;5.05;;
32347;SDS011;18821;44.800;10.326;2023-12-20T03:27:26;8.82;;;4.20;;
32347;SDS011;18821;44.800;10.326;2023-12-20T03:29:52;9.27;;;4.55;;
32347;SDS011;18821;44.800;10.326;2023-12-20T03:32:18;14.13;;;5.07;;
32347;SDS011;18821;44.800;10.326;2023-12-20T03:34:44;11.90;;;5.10;;
32347;SDS011;18821;44.800;10.326;2023-12-20T03:37:10;10.65;;;4.70;;
32347;SDS011;18821;44.800;10.326;2023-12-20T03:39:36;10.55;;;5.20;;
32347;SDS011;18821;44.800;10.326;2023-12-20T03:42:02;12.73;;;6.53;;
32347;SDS011;18821;44.800;10.326;2023-12-20T03:44:28;18.75;;;6.05;;
32347;SDS011;18821;44.800;10.326;2023-12-20T03:46:54;10.43;;;5.20;;
32347;SDS011;18821;44.800;10.326;2023-12-20T03:49:19;12.13;;;6.18;;
32347;SDS011;18821;44.800;10.326;2023-12-20T03:51:45;10.40;;;4.97;;
32347;SDS011;18821;44.800;10.326;2023-12-20T03:54:11;9.95;;;5.70;;
32347;SDS011;18821;44.800;10.326;2023-12-20T03:56:37;11.68;;;5.57;;
32347;SDS011;18821;44.800;10.326;2023-12-20T03:59:03;12.05;;;6.22;;
32347;SDS011;18821;44.800;10.326;2023-12-20T04:01:29;13.05;;;6.15;;
32347;SDS011;18821;44.800;10.326;2023-12-20T04:03:55;11.95;;;5.90;;
32347;SDS011;18821;44.800;10.326;2023-12-20T04:06:21;9.82;;;5.60;;
32347;SDS011;18821;44.800;10.326;2023-12-20T04:08:47;14.18;;;5.93;;
32347;SDS011;18821;44.800;10.326;2023-12-20T04:11:13;11.68;;;6.40;;
32347;SDS011;18821;44.800;10.326;2023-12-20T04:13:39;14.55;;;6.00;;
32347;SDS011;18821;44.800;10.326;2023-12-20T04:16:04;11.80;;;6.15;;
32347;SDS011;18821;44.800;10.326;2023-12-20T04:18:31;15.05;;;6.47;;
32347;SDS011;18821;44.800;10.326;2023-12-20T04:20:57;16.75;;;6.60;;
32347;SDS011;18821;44.800;10.326;2023-12-20T04:23:23;11.35;;;5.47;;
32347;SDS011;18821;44.800;10.326;2023-12-20T04:25:49;16.27;;;6.28;;
32347;SDS011;18821;44.800;10.326;2023-12-20T04:28:15;13.68;;;6.32;;
32347;SDS011;18821;44.800;10.326;2023-12-20T04:30:41;11.32;;;6.07;;
32347;SDS011;18821;44.800;10.326;2023-12-20T04:33:07;23.40;;;7.95;;
32347;SDS011;18821;44.800;10.326;2023-12-20T04:35:33;12.85;;;6.07;;
32347;SDS011;18821;44.800;10.326;2023-12-20T04:37:59;14.45;;;6.18;;
32347;SDS011;18821;44.800;10.326;2023-12-20T04:40:25;11.40;;;6.18;;
32347;SDS011;18821;44.800;10.326;2023-12-20T04:42:51;14.57;;;6.22;;
32347;SDS011;18821;44.800;10.326;2023-12-20T04:45:17;12.20;;;5.95;;
32347;SDS011;18821;44.800;10.326;2023-12-20T04:47:44;9.88;;;5.88;;
32347;SDS011;18821;44.800;10.326;2023-12-20T04:50:12;10.95;;;6.05;;
32347;SDS011;18821;44.800;10.326;2023-12-20T04:52:38;11.30;;;6.57;;
32347;SDS011;18821;44.800;10.326;2023-12-20T04:55:04;12.02;;;6.55;;
32347;SDS011;18821;44.800;10.326;2023-12-20T04:57:30;13.52;;;6.60;;
32347;SDS011;18821;44.800;10.326;2023-12-20T04:59:57;11.52;;;5.93;;
32347;SDS011;18821;44.800;10.326;2023-12-20T05:02:22;17.80;;;6.13;;
32347;SDS011;18821;44.800;10.326;2023-12-20T05:04:49;11.60;;;6.00;;
32347;SDS011;18821;44.800;10.326;2023-12-20T05:07:14;10.88;;;6.30;;
32347;SDS011;18821;44.800;10.326;2023-12-20T05:09:40;8.27;;;3.80;;
32347;SDS011;18821;44.800;10.326;2023-12-20T05:12:06;13.15;;;6.47;;
32347;SDS011;18821;44.800;10.326;2023-12-20T05:14:32;21.52;;;6.65;;
32347;SDS011;18821;44.800;10.326;2023-12-20T05:16:58;14.38;;;7.28;;
32347;SDS011;18821;44.800;10.326;2023-12-20T05:19:24;13.02;;;6.60;;
32347;SDS011;18821;44.800;10.326;2023-12-20T05:21:51;12.10;;;6.65;;
32347;SDS011;18821;44.800;10.326;2023-12-20T05:24:17;19.58;;;7.18;;
32347;SDS011;18821;44.800;10.326;2023-12-20T05:26:43;13.05;;;6.70;;
32347;SDS011;18821;44.800;10.326;2023-12-20T05:29:09;12.00;;;6.05;;
32347;SDS011;18821;44.800;10.326;2023-12-20T05:31:35;13.32;;;6.30;;
32347;SDS011;18821;44.800;10.326;2023-12-20T05:34:01;12.50;;;5.72;;
32347;SDS011;18821;44.800;10.326;2023-12-20T05:36:27;12.02;;;6.35;;
32347;SDS011;18821;44.800;10.326;2023-12-20T05:38:53;16.52;;;7.30;;
32347;SDS011;18821;44.800;10.326;2023-12-20T05:41:19;13.63;;;6.35;;
32347;SDS011;18821;44.800;10.326;2023-12-20T05:43:46;12.52;;;6.10;;
32347;SDS011;18821;44.800;10.326;2023-12-20T05:46:12;12.23;;;5.85;;
32347;SDS011;18821;44.800;10.326;2023-12-20T05:48:38;10.82;;;6.00;;
32347;SDS011;18821;44.800;10.326;2023-12-20T05:51:04;16.23;;;6.22;;
32347;SDS011;18821;44.800;10.326;2023-12-20T05:53:30;10.57;;;6.20;;
32347;SDS011;18821;44.800;10.326;2023-12-20T05:55:56;19.65;;;7.07;;
32347;SDS011;18821;44.800;10.326;2023-12-20T05:58:22;17.38;;;7.38;;
32347;SDS011;18821;44.800;10.326;2023-12-20T06:00:48;15.25;;;5.30;;
32347;SDS011;18821;44.800;10.326;2023-12-20T06:03:14;15.15;;;6.78;;
32347;SDS011;18821;44.800;10.326;2023-12-20T06:05:40;14.45;;;6.38;;
32347;SDS011;18821;44.800;10.326;2023-12-20T06:08:06;22.77;;;6.55;;
32347;SDS011;18821;44.800;10.326;2023-12-20T06:10:32;25.17;;;7.00;;
32347;SDS011;18821;44.800;10.326;2023-12-20T06:12:58;16.15;;;6.70;;
32347;SDS011;18821;44.800;10.326;2023-12-20T06:15:26;12.63;;;6.63;;
32347;SDS011;18821;44.800;10.326;2023-12-20T06:17:51;21.33;;;7.22;;
32347;SDS011;18821;44.800;10.326;2023-12-20T06:20:17;14.63;;;8.00;;
32347;SDS011;18821;44.800;10.326;2023-12-20T06:22:43;15.63;;;6.97;;
32347;SDS011;18821;44.800;10.326;2023-12-20T06:25:09;13.15;;;7.07;;
32347;SDS011;18821;44.800;10.326;2023-12-20T06:27:35;16.05;;;7.35;;
32347;SDS011;18821;44.800;10.326;2023-12-20T06:30:01;16.98;;;8.73;;
32347;SDS011;18821;44.800;10.326;2023-12-20T06:32:27;17.23;;;7.97;;
32347;SDS011;18821;44.800;10.326;2023-12-20T06:34:54;16.40;;;8.18;;
32347;SDS011;18821;44.800;10.326;2023-12-20T06:37:20;13.80;;;8.00;;
32347;SDS011;18821;44.800;10.326;2023-12-20T06:39:46;16.33;;;8.55;;
32347;SDS011;18821;44.800;10.326;2023-12-20T06:42:12;14.80;;;8.13;;
32347;SDS011;18821;44.800;10.326;2023-12-20T06:44:38;16.58;;;9.40;;
32347;SDS011;18821;44.800;10.326;2023-12-20T06:47:05;14.82;;;7.93;;
32347;SDS011;18821;44.800;10.326;2023-12-20T06:49:31;17.25;;;9.43;;
32347;SDS011;18821;44.800;10.326;2023-12-20T06:51:57;16.42;;;8.77;;
32347;SDS011;18821;44.800;10.326;2023-12-20T06:54:26;19.58;;;9.43;;
32347;SDS011;18821;44.800;10.326;2023-12-20T06:56:51;17.38;;;8.75;;
32347;SDS011;18821;44.800;10.326;2023-12-20T06:59:17;17.83;;;8.65;;
32347;SDS011;18821;44.800;10.326;2023-12-20T07:01:47;17.95;;;9.93;;
32347;SDS011;18821;44.800;10.326;2023-12-20T07:04:13;18.60;;;8.55;;
32347;SDS011;18821;44.800;10.326;2023-12-20T07:06:39;17.10;;;8.85;;
32347;SDS011;18821;44.800;10.326;2023-12-20T07:09:05;20.95;;;8.75;;
32347;SDS011;18821;44.800;10.326;2023-12-20T07:11:31;19.73;;;8.75;;
32347;SDS011;18821;44.800;10.326;2023-12-20T07:13:57;21.80;;;9.30;;
32347;SDS011;18821;44.800;10.326;2023-12-20T07:16:23;24.13;;;10.63;;
32347;SDS011;18821;44.800;10.326;2023-12-20T07:18:50;22.20;;;10.00;;
32347;SDS011;18821;44.800;10.326;2023-12-20T07:21:17;26.33;;;9.55;;
32347;SDS011;18821;44.800;10.326;2023-12-20T07:23:43;19.13;;;9.63;;
32347;SDS011;18821;44.800;10.326;2023-12-20T07:26:09;27.13;;;11.02;;
32347;SDS011;18821;44.800;10.326;2023-12-20T07:28:36;22.45;;;8.55;;
32347;SDS011;18821;44.800;10.326;2023-12-20T07:31:02;29.48;;;11.38;;
32347;SDS011;18821;44.800;10.326;2023-12-20T07:33:28;25.67;;;10.30;;
32347;SDS011;18821;44.800;10.326;2023-12-20T07:35:54;23.10;;;9.77;;
32347;SDS011;18821;44.800;10.326;2023-12-20T07:38:20;19.23;;;9.65;;
32347;SDS011;18821;44.800;10.326;2023-12-20T07:40:46;21.98;;;9.85;;
32347;SDS011;18821;44.800;10.326;2023-12-20T07:43:12;18.15;;;9.88;;
32347;SDS011;18821;44.800;10.326;2023-12-20T07:45:38;20.50;;;10.43;;
32347;SDS011;18821;44.800;10.326;2023-12-20T07:48:04;30.70;;;11.85;;
32347;SDS011;18821;44.800;10.326;2023-12-20T07:50:32;24.30;;;9.38;;
32347;SDS011;18821;44.800;10.326;2023-12-20T07:52:58;27.50;;;9.68;;
32347;SDS011;18821;44.800;10.326;2023-12-20T07:55:26;27.33;;;9.30;;
32347;SDS011;18821;44.800;10.326;2023-12-20T07:57:52;16.55;;;8.35;;
32347;SDS011;18821;44.800;10.326;2023-12-20T08:00:18;22.00;;;9.65;;
32347;SDS011;18821;44.800;10.326;2023-12-20T08:02:44;19.70;;;8.55;;
32347;SDS011;18821;44.800;10.326;2023-12-20T08:05:10;22.80;;;8.27;;
32347;SDS011;18821;44.800;10.326;2023-12-20T08:07:36;25.52;;;8.52;;
32347;SDS011;18821;44.800;10.326;2023-12-20T08:10:04;20.42;;;7.95;;
32347;SDS011;18821;44.800;10.326;2023-12-20T08:12:30;20.83;;;8.15;;
32347;SDS011;18821;44.800;10.326;2023-12-20T08:14:56;16.38;;;8.18;;
32347;SDS011;18821;44.800;10.326;2023-12-20T08:17:24;24.08;;;8.43;;
32347;SDS011;18821;44.800;10.326;2023-12-20T08:19:50;15.05;;;8.02;;
32347;SDS011;18821;44.800;10.326;2023-12-20T08:22:16;18.92;;;8.25;;
32347;SDS011;18821;44.800;10.326;2023-12-20T08:24:42;20.67;;;8.00;;
32347;SDS011;18821;44.800;10.326;2023-12-20T08:27:08;18.52;;;8.52;;
32347;SDS011;18821;44.800;10.326;2023-12-20T08:29:37;18.90;;;9.15;;
32347;SDS011;18821;44.800;10.326;2023-12-20T08:32:17;17.85;;;7.35;;
32347;SDS011;18821;44.800;10.326;2023-12-20T08:34:43;15.93;;;6.80;;
32347;SDS011;18821;44.800;10.326;2023-12-20T08:37:09;12.38;;;6.88;;
32347;SDS011;18821;44.800;10.326;2023-12-20T08:39:36;16.98;;;6.85;;
32347;SDS011;18821;44.800;10.326;2023-12-20T08:42:05;21.48;;;7.70;;
32347;SDS011;18821;44.800;10.326;2023-12-20T08:44:32;25.45;;;9.85;;
32347;SDS011;18821;44.800;10.326;2023-12-20T08:46:57;16.50;;;6.35;;
32347;SDS011;18821;44.800;10.326;2023-12-20T08:49:23;18.63;;;6.47;;
32347;SDS011;18821;44.800;10.326;2023-12-20T08:51:50;16.05;;;5.78;;
32347;SDS011;18821;44.800;10.326;2023-12-20T08:54:16;13.20;;;5.53;;
32347;SDS011;18821;44.800;10.326;2023-12-20T08:56:42;19.50;;;6.15;;
32347;SDS011;18821;44.800;10.326;2023-12-20T08:59:09;16.23;;;5.80;;
32347;SDS011;18821;44.800;10.326;2023-12-20T09:01:34;16.20;;;5.95;;
32347;SDS011;18821;44.800;10.326;2023-12-20T09:04:00;18.80;;;7.03;;
32347;SDS011;18821;44.800;10.326;2023-12-20T09:06:26;16.30;;;6.60;;
32347;SDS011;18821;44.800;10.326;2023-12-20T09:08:52;14.73;;;6.22;;
32347;SDS011;18821;44.800;10.326;2023-12-20T09:11:18;18.00;;;6.78;;
32347;SDS011;18821;44.800;10.326;2023-12-20T09:13:44;22.70;;;6.35;;
32347;SDS011;18821;44.800;10.326;2023-12-20T09:16:11;14.32;;;6.00;;
32347;SDS011;18821;44.800;10.326;2023-12-20T09:18:38;15.27;;;6.43;;
32347;SDS011;18821;44.800;10.326;2023-12-20T09:21:17;21.80;;;6.72;;
32347;SDS011;18821;44.800;10.326;2023-12-20T09:23:43;17.33;;;6.80;;
32347;SDS011;18821;44.800;10.326;2023-12-20T09:26:10;24.27;;;7.50;;
32347;SDS011;18821;44.800;10.326;2023-12-20T09:28:35;20.23;;;8.25;;
32347;SDS011;18821;44.800;10.326;2023-12-20T09:31:03;14.88;;;6.95;;
32347;SDS011;18821;44.800;10.326;2023-12-20T09:33:29;13.23;;;6.78;;
32347;SDS011;18821;44.800;10.326;2023-12-20T09:35:55;17.35;;;7.53;;
32347;SDS011;18821;44.800;10.326;2023-12-20T09:38:21;22.23;;;9.23;;
32347;SDS011;18821;44.800;10.326;2023-12-20T09:40:47;18.00;;;8.50;;
32347;SDS011;18821;44.800;10.326;2023-12-20T09:43:14;17.00;;;8.57;;
32347;SDS011;18821;44.800;10.326;2023-12-20T09:45:45;21.80;;;8.18;;
32347;SDS011;18821;44.800;10.326;2023-12-20T09:48:13;18.55;;;7.65;;
32347;SDS011;18821;44.800;10.326;2023-12-20T09:50:43;22.45;;;8.32;;
32347;SDS011;18821;44.800;10.326;2023-12-20T09:53:09;16.08;;;7.97;;
32347;SDS011;18821;44.800;10.326;2023-12-20T09:55:41;19.67;;;7.22;;
32347;SDS011;18821;44.800;10.326;2023-12-20T09:58:07;21.35;;;8.50;;
32347;SDS011;18821;44.800;10.326;2023-12-20T10:00:36;24.50;;;9.00;;
32347;SDS011;18821;44.800;10.326;2023-12-20T10:03:02;22.45;;;9.68;;
32347;SDS011;18821;44.800;10.326;2023-12-20T10:05:31;23.45;;;9.35;;
32347;SDS011;18821;44.800;10.326;2023-12-20T10:07:58;25.90;;;9.63;;
32347;SDS011;18821;44.800;10.326;2023-12-20T10:10:25;21.60;;;9.10;;
32347;SDS011;18821;44.800;10.326;2023-12-20T10:13:04;22.83;;;8.73;;
32347;SDS011;18821;44.800;10.326;2023-12-20T10:15:35;31.40;;;9.65;;
32347;SDS011;18821;44.800;10.326;2023-12-20T10:18:01;20.35;;;8.50;;
32347;SDS011;18821;44.800;10.326;2023-12-20T10:20:28;22.17;;;9.05;;
32347;SDS011;18821;44.800;10.326;2023-12-20T10:22:58;21.63;;;9.65;;
32347;SDS011;18821;44.800;10.326;2023-12-20T10:25:24;23.98;;;8.73;;
32347;SDS011;18821;44.800;10.326;2023-12-20T10:28:08;29.33;;;9.57;;
32347;SDS011;18821;44.800;10.326;2023-12-20T10:30:35;25.60;;;11.87;;
32347;SDS011;18821;44.800;10.326;2023-12-20T10:33:01;21.85;;;11.35;;
32347;SDS011;18821;44.800;10.326;2023-12-20T10:35:27;54.60;;;16.55;;
32347;SDS011;18821;44.800;10.326;2023-12-20T10:37:55;22.20;;;11.55;;
32347;SDS011;18821;44.800;10.326;2023-12-20T10:40:21;20.63;;;10.38;;
32347;SDS011;18821;44.800;10.326;2023-12-20T10:42:48;28.77;;;11.13;;
32347;SDS011;18821;44.800;10.326;2023-12-20T10:45:16;22.27;;;10.20;;
32347;SDS011;18821;44.800;10.326;2023-12-20T10:47:46;35.63;;;12.77;;
32347;SDS011;18821;44.800;10.326;2023-12-20T10:50:12;34.05;;;12.02;;
32347;SDS011;18821;44.800;10.326;2023-12-20T10:52:38;34.25;;;11.38;;
32347;SDS011;18821;44.800;10.326;2023-12-20T10:55:06;27.60;;;10.88;;
32347;SDS011;18821;44.800;10.326;2023-12-20T10:57:32;25.40;;;10.55;;
32347;SDS011;18821;44.800;10.326;2023-12-20T11:00:01;27.85;;;10.50;;
32347;SDS011;18821;44.800;10.326;2023-12-20T11:02:33;26.42;;;13.38;;
32347;SDS011;18821;44.800;10.326;2023-12-20T11:07:55;26.65;;;11.18;;
32347;SDS011;18821;44.800;10.326;2023-12-20T11:10:33;28.50;;;12.43;;
32347;SDS011;18821;44.800;10.326;2023-12-20T11:13:13;28.00;;;11.95;;
32347;SDS011;18821;44.800;10.326;2023-12-20T11:15:48;30.17;;;14.10;;
32347;SDS011;18821;44.800;10.326;2023-12-20T11:18:14;29.05;;;12.25;;
32347;SDS011;18821;44.800;10.326;2023-12-20T11:20:41;24.40;;;11.40;;
32347;SDS011;18821;44.800;10.326;2023-12-20T11:23:07;21.23;;;11.40;;
32347;SDS011;18821;44.800;10.326;2023-12-20T11:28:14;33.20;;;12.40;;
32347;SDS011;18821;44.800;10.326;2023-12-20T11:30:50;27.52;;;11.77;;
32347;SDS011;18821;44.800;10.326;2023-12-20T11:33:16;28.30;;;11.90;;
32347;SDS011;18821;44.800;10.326;2023-12-20T11:35:46;25.45;;;13.07;;
32347;SDS011;18821;44.800;10.326;2023-12-20T11:38:23;24.88;;;13.60;;
32347;SDS011;18821;44.800;10.326;2023-12-20T11:40:49;30.17;;;13.35;;
32347;SDS011;18821;44.800;10.326;2023-12-20T11:43:32;34.70;;;11.18;;
32347;SDS011;18821;44.800;10.326;2023-12-20T11:46:10;24.95;;;12.10;;
32347;SDS011;18821;44.800;10.326;2023-12-20T11:48:38;34.42;;;12.25;;
32347;SDS011;18821;44.800;10.326;2023-12-20T11:51:12;26.27;;;11.48;;
32347;SDS011;18821;44.800;10.326;2023-12-20T11:53:39;44.17;;;12.95;;
32347;SDS011;18821;44.800;10.326;2023-12-20T11:56:06;33.05;;;13.43;;
32347;SDS011;18821;44.800;10.326;2023-12-20T11:58:32;29.20;;;11.55;;
32347;SDS011;18821;44.800;10.326;2023-12-20T12:01:01;28.45;;;12.13;;
32347;SDS011;18821;44.800;10.326;2023-12-20T12:03:28;26.77;;;12.52;;
32347;SDS011;18821;44.800;10.326;2023-12-20T12:05:54;30.35;;;12.35;;
32347;SDS011;18821;44.800;10.326;2023-12-20T12:08:20;27.80;;;11.50;;
32347;SDS011;18821;44.800;10.326;2023-12-20T12:10:46;33.22;;;10.70;;
32347;SDS011;18821;44.800;10.326;2023-12-20T12:13:12;25.35;;;12.38;;
32347;SDS011;18821;44.800;10.326;2023-12-20T12:15:39;28.38;;;11.50;;
32347;SDS011;18821;44.800;10.326;2023-12-20T12:18:07;29.60;;;11.75;;
32347;SDS011;18821;44.800;10.326;2023-12-20T12:20:33;30.73;;;11.80;;
32347;SDS011;18821;44.800;10.326;2023-12-20T12:23:00;33.45;;;12.95;;
32347;SDS011;18821;44.800;10.326;2023-12-20T12:25:31;24.13;;;11.77;;
32347;SDS011;18821;44.800;10.326;2023-12-20T12:27:58;30.77;;;12.48;;
32347;SDS011;18821;44.800;10.326;2023-12-20T12:30:24;21.55;;;11.80;;
32347;SDS011;18821;44.800;10.326;2023-12-20T12:32:51;26.70;;;12.73;;
32347;SDS011;18821;44.800;10.326;2023-12-20T12:35:18;27.02;;;11.68;;
32347;SDS011;18821;44.800;10.326;2023-12-20T12:37:47;27.15;;;11.98;;
32347;SDS011;18821;44.800;10.326;2023-12-20T12:40:14;30.15;;;11.45;;
32347;SDS011;18821;44.800;10.326;2023-12-20T12:42:41;35.20;;;16.48;;
32347;SDS011;18821;44.800;10.326;2023-12-20T12:45:08;26.73;;;12.57;;
32347;SDS011;18821;44.800;10.326;2023-12-20T12:47:37;30.25;;;11.63;;
32347;SDS011;18821;44.800;10.326;2023-12-20T12:50:03;37.20;;;13.93;;
32347;SDS011;18821;44.800;10.326;2023-12-20T12:52:30;32.33;;;13.57;;
32347;SDS011;18821;44.800;10.326;2023-12-20T12:54:56;25.13;;;11.80;;
32347;SDS011;18821;44.800;10.326;2023-12-20T12:57:22;29.13;;;11.75;;
32347;SDS011;18821;44.800;10.326;2023-12-20T12:59:49;29.65;;;11.55;;
32347;SDS011;18821;44.800;10.326;2023-12-20T13:02:15;37.60;;;13.98;;
32347;SDS011;18821;44.800;10.326;2023-12-20T13:04:41;27.02;;;11.77;;
32347;SDS011;18821;44.800;10.326;2023-12-20T13:07:08;25.17;;;12.23;;
32347;SDS011;18821;44.800;10.326;2023-12-20T13:09:38;32.30;;;12.05;;
32347;SDS011;18821;44.800;10.326;2023-12-20T13:12:05;27.45;;;13.15;;
32347;SDS011;18821;44.800;10.326;2023-12-20T13:14:33;26.95;;;12.50;;
32347;SDS011;18821;44.800;10.326;2023-12-20T13:17:02;25.67;;;11.75;;
32347;SDS011;18821;44.800;10.326;2023-12-20T13:19:29;22.83;;;11.73;;
32347;SDS011;18821;44.800;10.326;2023-12-20T13:21:56;26.05;;;11.95;;
32347;SDS011;18821;44.800;10.326;2023-12-20T13:24:23;24.95;;;12.88;;
32347;SDS011;18821;44.800;10.326;2023-12-20T13:26:49;22.02;;;12.05;;
32347;SDS011;18821;44.800;10.326;2023-12-20T13:29:15;28.00;;;11.85;;
32347;SDS011;18821;44.800;10.326;2023-12-20T13:31:42;25.33;;;13.10;;
32347;SDS011;18821;44.800;10.326;2023-12-20T13:34:08;26.42;;;12.13;;
32347;SDS011;18821;44.800;10.326;2023-12-20T13:36:33;32.90;;;13.30;;
32347;SDS011;18821;44.800;10.326;2023-12-20T13:39:00;29.27;;;12.90;;
32347;SDS011;18821;44.800;10.326;2023-12-20T13:41:28;30.73;;;12.48;;
32347;SDS011;18821;44.800;10.326;2023-12-20T13:43:54;32.97;;;11.73;;
32347;SDS011;18821;44.800;10.326;2023-12-20T13:46:20;35.00;;;12.65;;
32347;SDS011;18821;44.800;10.326;2023-12-20T13:48:46;33.40;;;11.90;;
32347;SDS011;18821;44.800;10.326;2023-12-20T13:51:12;25.88;;;11.90;;
32347;SDS011;18821;44.800;10.326;2023-12-20T13:53:38;28.23;;;12.43;;
32347;SDS011;18821;44.800;10.326;2023-12-20T13:56:04;27.40;;;11.40;;
32347;SDS011;18821;44.800;10.326;2023-12-20T13:58:30;32.45;;;13.52;;
32347;SDS011;18821;44.800;10.326;2023-12-20T14:00:56;48.83;;;12.77;;
32347;SDS011;18821;44.800;10.326;2023-12-20T14:03:22;29.50;;;12.68;;
32347;SDS011;18821;44.800;10.326;2023-12-20T14:05:47;38.92;;;12.88;;
32347;SDS011;18821;44.800;10.326;2023-12-20T14:08:13;38.15;;;12.35;;
32347;SDS011;18821;44.800;10.326;2023-12-20T14:10:39;32.78;;;12.27;;
32347;SDS011;18821;44.800;10.326;2023-12-20T14:13:05;40.15;;;12.80;;
32347;SDS011;18821;44.800;10.326;2023-12-20T14:15:31;27.95;;;12.27;;
32347;SDS011;18821;44.800;10.326;2023-12-20T14:18:05;41.80;;;13.05;;
32347;SDS011;18821;44.800;10.326;2023-12-20T14:20:35;36.35;;;12.13;;
32347;SDS011;18821;44.800;10.326;2023-12-20T14:23:02;40.15;;;13.90;;